sensor_id;sensor_type;location;lat;lon;timestamp;pressure;altitude;pressure_sealevel;temperature;humidity
67373;BME280;54257;54.496;18.412;2023-02-23T00:02:01;100201.48;;;-0.37;86.27
67373;BME280;54257;54.496;18.412;2023-02-23T00:04:29;100198.36;;;-0.38;86.01
67373;BME280;54257;54.496;18.412;2023-02-23T00:06:56;100196.27;;;-0.39;86.12
67373;BME280;54257;54.496;18.412;2023-02-23T00:09:26;100194.20;;;-0.38;86.07
67373;BME280;54257;54.496;18.412;2023-02-23T00:12:03;100195.05;;;-0.37;86.01
67373;BME280;54257;54.496;18.412;2023-02-23T00:14:34;100194.35;;;-0.38;86.09
67373;BME280;54257;54.496;18.412;2023-02-23T00:17:04;100193.63;;;-0.39;86.00
67373;BME280;54257;54.496;18.412;2023-02-23T00:19:38;100190.22;;;-0.40;86.30
67373;BME280;54257;54.496;18.412;2023-02-23T00:22:04;100190.83;;;-0.40;86.32
67373;BME280;54257;54.496;18.412;2023-02-23T00:24:32;100191.24;;;-0.42;86.33
67373;BME280;54257;54.496;18.412;2023-02-23T00:27:02;100188.40;;;-0.44;86.46
67373;BME280;54257;54.496;18.412;2023-02-23T00:29:32;100187.27;;;-0.46;86.34
67373;BME280;54257;54.496;18.412;2023-02-23T00:32:05;100180.83;;;-0.47;86.39
67373;BME280;54257;54.496;18.412;2023-02-23T00:34:32;100178.56;;;-0.49;86.33
67373;BME280;54257;54.496;18.412;2023-02-23T00:37:01;100172.77;;;-0.50;86.35
67373;BME280;54257;54.496;18.412;2023-02-23T00:39:28;100172.98;;;-0.49;86.42
67373;BME280;54257;54.496;18.412;2023-02-23T00:41:56;100171.21;;;-0.53;86.63
67373;BME280;54257;54.496;18.412;2023-02-23T00:44:28;100170.34;;;-0.57;86.57
67373;BME280;54257;54.496;18.412;2023-02-23T00:46:58;100166.45;;;-0.60;86.79
67373;BME280;54257;54.496;18.412;2023-02-23T00:49:26;100173.41;;;-0.61;86.71
67373;BME280;54257;54.496;18.412;2023-02-23T00:51:53;100172.76;;;-0.61;86.79
67373;BME280;54257;54.496;18.412;2023-02-23T00:54:20;100172.30;;;-0.63;86.92
67373;BME280;54257;54.496;18.412;2023-02-23T00:56:48;100172.52;;;-0.64;86.83
67373;BME280;54257;54.496;18.412;2023-02-23T00:59:17;100169.03;;;-0.64;86.84
67373;BME280;54257;54.496;18.412;2023-02-23T01:01:45;100168.57;;;-0.66;86.71
67373;BME280;54257;54.496;18.412;2023-02-23T01:04:12;100167.05;;;-0.69;87.16
67373;BME280;54257;54.496;18.412;2023-02-23T01:06:40;100163.33;;;-0.72;87.27
67373;BME280;54257;54.496;18.412;2023-02-23T01:09:12;100164.86;;;-0.74;87.27
67373;BME280;54257;54.496;18.412;2023-02-23T01:11:39;100163.45;;;-0.75;87.21
67373;BME280;54257;54.496;18.412;2023-02-23T01:14:12;100163.40;;;-0.78;87.85
67373;BME280;54257;54.496;18.412;2023-02-23T01:16:39;100161.69;;;-0.81;87.79
67373;BME280;54257;54.496;18.412;2023-02-23T01:19:06;100160.74;;;-0.83;87.55
67373;BME280;54257;54.496;18.412;2023-02-23T01:21:36;100161.37;;;-0.84;87.58
67373;BME280;54257;54.496;18.412;2023-02-23T01:24:05;100163.88;;;-0.84;87.81
67373;BME280;54257;54.496;18.412;2023-02-23T01:26:35;100165.27;;;-0.86;87.74
67373;BME280;54257;54.496;18.412;2023-02-23T01:29:14;100160.24;;;-0.88;87.91
67373;BME280;54257;54.496;18.412;2023-02-23T01:31:44;100157.77;;;-0.90;87.98
67373;BME280;54257;54.496;18.412;2023-02-23T01:34:13;100157.85;;;-0.94;88.13
67373;BME280;54257;54.496;18.412;2023-02-23T01:36:42;100156.08;;;-0.96;88.12
67373;BME280;54257;54.496;18.412;2023-02-23T01:39:12;100155.70;;;-0.99;88.49
67373;BME280;54257;54.496;18.412;2023-02-23T01:41:40;100153.23;;;-1.03;88.84
67373;BME280;54257;54.496;18.412;2023-02-23T01:46:40;100147.82;;;-1.09;89.04
67373;BME280;54257;54.496;18.412;2023-02-23T01:49:13;100146.76;;;-1.12;89.06
67373;BME280;54257;54.496;18.412;2023-02-23T01:51:46;100148.47;;;-1.15;89.11
67373;BME280;54257;54.496;18.412;2023-02-23T01:54:17;100143.00;;;-1.16;88.98
67373;BME280;54257;54.496;18.412;2023-02-23T01:56:48;100140.21;;;-1.20;89.59
67373;BME280;54257;54.496;18.412;2023-02-23T01:59:27;100137.23;;;-1.22;89.47
67373;BME280;54257;54.496;18.412;2023-02-23T02:01:55;100137.33;;;-1.24;89.23
67373;BME280;54257;54.496;18.412;2023-02-23T02:04:23;100131.67;;;-1.25;89.44
67373;BME280;54257;54.496;18.412;2023-02-23T02:06:52;100128.61;;;-1.26;89.24
67373;BME280;54257;54.496;18.412;2023-02-23T02:09:23;100127.48;;;-1.25;89.27
67373;BME280;54257;54.496;18.412;2023-02-23T02:11:54;100124.77;;;-1.26;89.28
67373;BME280;54257;54.496;18.412;2023-02-23T02:14:24;100124.52;;;-1.27;89.24
67373;BME280;54257;54.496;18.412;2023-02-23T02:24:17;100121.11;;;-1.35;89.27
67373;BME280;54257;54.496;18.412;2023-02-23T02:26:28;100115.45;;;-1.40;88.95
67373;BME280;54257;54.496;18.412;2023-02-23T02:30:21;100115.94;;;-1.43;88.78
67373;BME280;54257;54.496;18.412;2023-02-23T02:32:15;100114.64;;;-1.47;88.45
67373;BME280;54257;54.496;18.412;2023-02-23T02:35:15;100114.34;;;-1.49;88.47
67373;BME280;54257;54.496;18.412;2023-02-23T02:38:10;100113.55;;;-1.51;88.19
67373;BME280;54257;54.496;18.412;2023-02-23T02:40:56;100113.23;;;-1.53;87.77
67373;BME280;54257;54.496;18.412;2023-02-23T02:43:45;100111.83;;;-1.57;87.22
67373;BME280;54257;54.496;18.412;2023-02-23T02:46:20;100108.85;;;-1.59;86.75
67373;BME280;54257;54.496;18.412;2023-02-23T02:51:54;100109.81;;;-1.62;85.97
67373;BME280;54257;54.496;18.412;2023-02-23T02:54:24;100110.30;;;-1.64;85.76
67373;BME280;54257;54.496;18.412;2023-02-23T02:56:57;100104.54;;;-1.65;85.55
67373;BME280;54257;54.496;18.412;2023-02-23T02:59:27;100103.98;;;-1.66;85.33
67373;BME280;54257;54.496;18.412;2023-02-23T03:02:21;100101.27;;;-1.67;85.06
67373;BME280;54257;54.496;18.412;2023-02-23T03:05:16;100097.66;;;-1.68;84.99
67373;BME280;54257;54.496;18.412;2023-02-23T03:11:06;100091.30;;;-1.71;84.58
67373;BME280;54257;54.496;18.412;2023-02-23T03:20:38;100086.42;;;-1.79;83.96
67373;BME280;54257;54.496;18.412;2023-02-23T03:29:41;100086.63;;;-1.83;84.15
67373;BME280;54257;54.496;18.412;2023-02-23T03:32:38;100086.11;;;-1.83;84.29
67373;BME280;54257;54.496;18.412;2023-02-23T03:35:29;100083.71;;;-1.84;84.16
67373;BME280;54257;54.496;18.412;2023-02-23T03:38:43;100078.79;;;-1.85;83.57
67373;BME280;54257;54.496;18.412;2023-02-23T03:41:34;100079.44;;;-1.85;83.35
67373;BME280;54257;54.496;18.412;2023-02-23T03:44:36;100073.56;;;-1.86;83.27
67373;BME280;54257;54.496;18.412;2023-02-23T03:47:27;100072.90;;;-1.88;82.85
67373;BME280;54257;54.496;18.412;2023-02-23T03:50:23;100067.34;;;-1.88;82.91
67373;BME280;54257;54.496;18.412;2023-02-23T03:53:15;100065.61;;;-1.89;82.78
67373;BME280;54257;54.496;18.412;2023-02-23T03:56:02;100065.12;;;-1.91;82.30
67373;BME280;54257;54.496;18.412;2023-02-23T03:58:52;100059.96;;;-1.93;82.21
67373;BME280;54257;54.496;18.412;2023-02-23T04:01:41;100057.16;;;-1.96;82.01
67373;BME280;54257;54.496;18.412;2023-02-23T04:04:28;100053.89;;;-1.97;82.18
67373;BME280;54257;54.496;18.412;2023-02-23T04:07:17;100054.14;;;-1.98;82.12
67373;BME280;54257;54.496;18.412;2023-02-23T04:10:06;100058.77;;;-1.99;81.91
67373;BME280;54257;54.496;18.412;2023-02-23T04:12:59;100060.27;;;-1.99;81.76
67373;BME280;54257;54.496;18.412;2023-02-23T04:15:46;100060.94;;;-1.99;81.80
67373;BME280;54257;54.496;18.412;2023-02-23T04:18:23;100059.06;;;-2.00;81.29
67373;BME280;54257;54.496;18.412;2023-02-23T04:20:51;100055.23;;;-1.99;81.38
67373;BME280;54257;54.496;18.412;2023-02-23T04:23:19;100052.29;;;-2.01;80.97
67373;BME280;54257;54.496;18.412;2023-02-23T04:25:49;100047.84;;;-2.00;80.96
67373;BME280;54257;54.496;18.412;2023-02-23T04:28:17;100041.42;;;-2.01;81.05
67373;BME280;54257;54.496;18.412;2023-02-23T04:30:45;100044.48;;;-2.03;80.51
67373;BME280;54257;54.496;18.412;2023-02-23T04:33:14;100044.49;;;-2.05;80.32
67373;BME280;54257;54.496;18.412;2023-02-23T04:35:41;100041.45;;;-2.05;80.61
67373;BME280;54257;54.496;18.412;2023-02-23T04:38:08;100034.36;;;-2.06;80.05
67373;BME280;54257;54.496;18.412;2023-02-23T04:40:35;100035.59;;;-2.08;79.76
67373;BME280;54257;54.496;18.412;2023-02-23T04:43:02;100032.61;;;-2.07;79.79
67373;BME280;54257;54.496;18.412;2023-02-23T04:45:30;100028.55;;;-2.08;79.78
67373;BME280;54257;54.496;18.412;2023-02-23T04:47:57;100027.04;;;-2.08;79.62
67373;BME280;54257;54.496;18.412;2023-02-23T04:50:26;100022.48;;;-2.09;79.46
67373;BME280;54257;54.496;18.412;2023-02-23T04:52:53;100020.95;;;-2.09;79.62
67373;BME280;54257;54.496;18.412;2023-02-23T04:55:22;100018.05;;;-2.10;79.45
67373;BME280;54257;54.496;18.412;2023-02-23T04:57:51;100017.40;;;-2.09;79.74
67373;BME280;54257;54.496;18.412;2023-02-23T05:00:22;100008.73;;;-2.12;79.48
67373;BME280;54257;54.496;18.412;2023-02-23T05:02:49;100011.09;;;-2.12;79.29
67373;BME280;54257;54.496;18.412;2023-02-23T05:05:17;100005.49;;;-2.12;79.39
67373;BME280;54257;54.496;18.412;2023-02-23T05:07:45;100008.31;;;-2.13;79.40
67373;BME280;54257;54.496;18.412;2023-02-23T05:10:12;100002.86;;;-2.14;78.75
67373;BME280;54257;54.496;18.412;2023-02-23T05:12:39;99996.59;;;-2.16;78.86
67373;BME280;54257;54.496;18.412;2023-02-23T05:15:06;99995.00;;;-2.17;78.91
67373;BME280;54257;54.496;18.412;2023-02-23T05:17:37;99992.10;;;-2.18;78.79
67373;BME280;54257;54.496;18.412;2023-02-23T05:20:04;99992.94;;;-2.18;79.09
67373;BME280;54257;54.496;18.412;2023-02-23T05:22:32;99997.31;;;-2.17;79.52
67373;BME280;54257;54.496;18.412;2023-02-23T05:24:58;99994.29;;;-2.18;79.39
67373;BME280;54257;54.496;18.412;2023-02-23T05:27:25;99991.10;;;-2.17;79.52
67373;BME280;54257;54.496;18.412;2023-02-23T05:29:52;99987.41;;;-2.18;79.50
67373;BME280;54257;54.496;18.412;2023-02-23T05:32:19;99982.95;;;-2.17;79.65
67373;BME280;54257;54.496;18.412;2023-02-23T05:34:47;99981.55;;;-2.18;79.24
67373;BME280;54257;54.496;18.412;2023-02-23T05:37:14;99976.96;;;-2.17;79.47
67373;BME280;54257;54.496;18.412;2023-02-23T05:39:41;99977.09;;;-2.17;79.07
67373;BME280;54257;54.496;18.412;2023-02-23T05:42:08;99973.27;;;-2.17;79.44
67373;BME280;54257;54.496;18.412;2023-02-23T05:44:35;99975.66;;;-2.18;79.13
67373;BME280;54257;54.496;18.412;2023-02-23T05:47:03;99977.16;;;-2.18;79.43
67373;BME280;54257;54.496;18.412;2023-02-23T05:49:30;99975.39;;;-2.17;79.46
67373;BME280;54257;54.496;18.412;2023-02-23T05:51:57;99970.89;;;-2.20;79.30
67373;BME280;54257;54.496;18.412;2023-02-23T05:54:24;99967.94;;;-2.19;79.46
67373;BME280;54257;54.496;18.412;2023-02-23T05:56:51;99967.52;;;-2.18;79.76
67373;BME280;54257;54.496;18.412;2023-02-23T05:59:18;99963.39;;;-2.17;79.71
67373;BME280;54257;54.496;18.412;2023-02-23T06:01:46;99955.66;;;-2.17;79.73
67373;BME280;54257;54.496;18.412;2023-02-23T06:04:13;99959.66;;;-2.17;79.47
67373;BME280;54257;54.496;18.412;2023-02-23T06:06:41;99960.15;;;-2.20;79.26
67373;BME280;54257;54.496;18.412;2023-02-23T06:09:09;99962.28;;;-2.18;79.64
67373;BME280;54257;54.496;18.412;2023-02-23T06:11:36;99961.34;;;-2.18;79.74
67373;BME280;54257;54.496;18.412;2023-02-23T06:14:03;99962.29;;;-2.16;79.88
67373;BME280;54257;54.496;18.412;2023-02-23T06:16:30;99955.41;;;-2.16;79.75
67373;BME280;54257;54.496;18.412;2023-02-23T06:18:59;99954.07;;;-2.19;79.84
67373;BME280;54257;54.496;18.412;2023-02-23T06:21:26;99949.09;;;-2.20;79.96
67373;BME280;54257;54.496;18.412;2023-02-23T06:23:52;99947.27;;;-2.22;80.13
67373;BME280;54257;54.496;18.412;2023-02-23T06:26:21;99945.23;;;-2.26;80.21
67373;BME280;54257;54.496;18.412;2023-02-23T06:28:48;99944.23;;;-2.28;80.40
67373;BME280;54257;54.496;18.412;2023-02-23T06:31:17;99936.27;;;-2.29;80.52
67373;BME280;54257;54.496;18.412;2023-02-23T06:33:44;99933.13;;;-2.32;80.61
67373;BME280;54257;54.496;18.412;2023-02-23T06:36:13;99929.48;;;-2.31;80.74
67373;BME280;54257;54.496;18.412;2023-02-23T06:38:40;99930.94;;;-2.27;80.77
67373;BME280;54257;54.496;18.412;2023-02-23T06:41:08;99929.14;;;-2.23;80.71
67373;BME280;54257;54.496;18.412;2023-02-23T06:43:36;99928.89;;;-2.20;80.64
67373;BME280;54257;54.496;18.412;2023-02-23T06:46:03;99931.25;;;-2.17;80.43
67373;BME280;54257;54.496;18.412;2023-02-23T06:48:35;99927.04;;;-2.15;80.38
67373;BME280;54257;54.496;18.412;2023-02-23T06:51:02;99922.56;;;-2.12;80.49
67373;BME280;54257;54.496;18.412;2023-02-23T06:53:29;99925.10;;;-2.09;80.50
67373;BME280;54257;54.496;18.412;2023-02-23T06:55:56;99919.73;;;-2.09;80.38
67373;BME280;54257;54.496;18.412;2023-02-23T06:58:23;99919.38;;;-2.09;80.39
67373;BME280;54257;54.496;18.412;2023-02-23T07:00:50;99919.44;;;-2.09;80.55
67373;BME280;54257;54.496;18.412;2023-02-23T07:03:18;99916.83;;;-2.07;80.65
67373;BME280;54257;54.496;18.412;2023-02-23T07:05:45;99913.30;;;-2.08;80.83
67373;BME280;54257;54.496;18.412;2023-02-23T07:08:16;99914.91;;;-2.06;80.81
67373;BME280;54257;54.496;18.412;2023-02-23T07:10:44;99908.52;;;-2.01;80.91
67373;BME280;54257;54.496;18.412;2023-02-23T07:13:11;99911.04;;;-1.96;80.71
67373;BME280;54257;54.496;18.412;2023-02-23T07:15:39;99905.67;;;-1.89;80.48
67373;BME280;54257;54.496;18.412;2023-02-23T07:18:07;99902.52;;;-1.83;80.16
67373;BME280;54257;54.496;18.412;2023-02-23T07:20:34;99899.27;;;-1.76;80.05
67373;BME280;54257;54.496;18.412;2023-02-23T07:23:00;99898.32;;;-1.73;79.58
67373;BME280;54257;54.496;18.412;2023-02-23T07:25:29;99892.35;;;-1.70;79.50
67373;BME280;54257;54.496;18.412;2023-02-23T07:27:56;99893.54;;;-1.66;79.55
67373;BME280;54257;54.496;18.412;2023-02-23T07:30:24;99889.81;;;-1.67;79.05
67373;BME280;54257;54.496;18.412;2023-02-23T07:32:53;99881.34;;;-1.69;79.19
67373;BME280;54257;54.496;18.412;2023-02-23T07:35:20;99888.06;;;-1.68;79.62
67373;BME280;54257;54.496;18.412;2023-02-23T07:37:47;99882.60;;;-1.70;79.40
67373;BME280;54257;54.496;18.412;2023-02-23T07:40:14;99889.29;;;-1.71;79.52
67373;BME280;54257;54.496;18.412;2023-02-23T07:42:42;99888.44;;;-1.71;79.60
67373;BME280;54257;54.496;18.412;2023-02-23T07:45:10;99890.57;;;-1.71;79.27
67373;BME280;54257;54.496;18.412;2023-02-23T07:47:40;99884.60;;;-1.67;79.78
67373;BME280;54257;54.496;18.412;2023-02-23T07:50:07;99881.64;;;-1.61;79.72
67373;BME280;54257;54.496;18.412;2023-02-23T07:52:37;99877.64;;;-1.56;79.68
67373;BME280;54257;54.496;18.412;2023-02-23T07:55:05;99872.92;;;-1.48;79.24
67373;BME280;54257;54.496;18.412;2023-02-23T07:57:34;99871.95;;;-1.45;78.83
67373;BME280;54257;54.496;18.412;2023-02-23T08:00:02;99870.26;;;-1.43;78.77
67373;BME280;54257;54.496;18.412;2023-02-23T08:02:30;99867.77;;;-1.40;78.48
67373;BME280;54257;54.496;18.412;2023-02-23T08:04:59;99864.48;;;-1.41;78.25
67373;BME280;54257;54.496;18.412;2023-02-23T08:07:27;99862.20;;;-1.40;78.11
67373;BME280;54257;54.496;18.412;2023-02-23T08:09:53;99861.70;;;-1.40;78.43
67373;BME280;54257;54.496;18.412;2023-02-23T08:12:22;99854.55;;;-1.39;78.41
67373;BME280;54257;54.496;18.412;2023-02-23T08:14:49;99852.19;;;-1.37;78.50
67373;BME280;54257;54.496;18.412;2023-02-23T08:17:19;99849.65;;;-1.35;78.19
67373;BME280;54257;54.496;18.412;2023-02-23T08:19:47;99844.34;;;-1.34;78.05
67373;BME280;54257;54.496;18.412;2023-02-23T08:22:16;99845.46;;;-1.29;78.38
67373;BME280;54257;54.496;18.412;2023-02-23T08:24:43;99837.84;;;-1.25;78.03
67373;BME280;54257;54.496;18.412;2023-02-23T08:27:10;99837.84;;;-1.14;78.57
67373;BME280;54257;54.496;18.412;2023-02-23T08:29:37;99828.70;;;-1.01;78.30
67373;BME280;54257;54.496;18.412;2023-02-23T08:32:04;99830.90;;;-0.88;77.64
67373;BME280;54257;54.496;18.412;2023-02-23T08:34:36;99832.42;;;-0.76;77.21
67373;BME280;54257;54.496;18.412;2023-02-23T08:37:03;99830.27;;;-0.61;77.54
67373;BME280;54257;54.496;18.412;2023-02-23T08:39:30;99830.60;;;-0.50;76.76
67373;BME280;54257;54.496;18.412;2023-02-23T08:41:57;99823.42;;;-0.37;76.74
67373;BME280;54257;54.496;18.412;2023-02-23T08:44:24;99827.96;;;-0.25;76.80
67373;BME280;54257;54.496;18.412;2023-02-23T08:46:53;99825.48;;;-0.16;75.88
67373;BME280;54257;54.496;18.412;2023-02-23T08:49:21;99823.15;;;-0.10;75.70
67373;BME280;54257;54.496;18.412;2023-02-23T08:51:48;99817.02;;;-0.03;75.65
67373;BME280;54257;54.496;18.412;2023-02-23T08:54:16;99814.83;;;0.06;76.03
67373;BME280;54257;54.496;18.412;2023-02-23T08:56:43;99813.34;;;0.10;75.20
67373;BME280;54257;54.496;18.412;2023-02-23T08:59:13;99818.48;;;0.12;75.24
67373;BME280;54257;54.496;18.412;2023-02-23T09:01:41;99818.27;;;0.14;74.88
67373;BME280;54257;54.496;18.412;2023-02-23T09:04:08;99819.11;;;0.16;74.72
67373;BME280;54257;54.496;18.412;2023-02-23T09:06:36;99814.55;;;0.19;74.93
67373;BME280;54257;54.496;18.412;2023-02-23T09:09:03;99812.23;;;0.23;74.66
67373;BME280;54257;54.496;18.412;2023-02-23T09:11:31;99807.04;;;0.26;74.93
67373;BME280;54257;54.496;18.412;2023-02-23T09:13:59;99809.42;;;0.30;74.66
67373;BME280;54257;54.496;18.412;2023-02-23T09:16:26;99802.52;;;0.36;74.79
67373;BME280;54257;54.496;18.412;2023-02-23T09:18:53;99803.30;;;0.41;74.34
67373;BME280;54257;54.496;18.412;2023-02-23T09:21:22;99800.36;;;0.49;74.62
67373;BME280;54257;54.496;18.412;2023-02-23T09:23:51;99795.45;;;0.61;74.66
67373;BME280;54257;54.496;18.412;2023-02-23T09:26:22;99793.39;;;0.72;74.34
67373;BME280;54257;54.496;18.412;2023-02-23T09:28:50;99792.77;;;0.83;74.63
67373;BME280;54257;54.496;18.412;2023-02-23T09:31:20;99788.70;;;0.92;74.59
67373;BME280;54257;54.496;18.412;2023-02-23T09:33:48;99785.85;;;1.02;74.51
67373;BME280;54257;54.496;18.412;2023-02-23T09:36:19;99785.13;;;1.07;73.82
67373;BME280;54257;54.496;18.412;2023-02-23T09:38:52;99784.50;;;1.12;74.01
67373;BME280;54257;54.496;18.412;2023-02-23T09:47:00;99779.30;;;1.35;73.62
67373;BME280;54257;54.496;18.412;2023-02-23T09:49:34;99777.17;;;1.44;73.57
67373;BME280;54257;54.496;18.412;2023-02-23T09:52:10;99773.61;;;1.46;72.90
67373;BME280;54257;54.496;18.412;2023-02-23T09:54:41;99773.05;;;1.52;72.91
67373;BME280;54257;54.496;18.412;2023-02-23T09:57:13;99768.48;;;1.65;73.64
67373;BME280;54257;54.496;18.412;2023-02-23T09:59:42;99766.86;;;1.84;73.11
67373;BME280;54257;54.496;18.412;2023-02-23T10:02:36;99764.04;;;1.92;71.95
67373;BME280;54257;54.496;18.412;2023-02-23T10:05:10;99760.38;;;2.03;71.58
67373;BME280;54257;54.496;18.412;2023-02-23T10:10:40;99764.88;;;2.13;70.83
67373;BME280;54257;54.496;18.412;2023-02-23T10:16:24;99747.05;;;2.06;71.44
67373;BME280;54257;54.496;18.412;2023-02-23T10:19:14;99745.42;;;2.11;71.48
67373;BME280;54257;54.496;18.412;2023-02-23T10:22:06;99734.80;;;2.15;71.63
67373;BME280;54257;54.496;18.412;2023-02-23T10:25:12;99729.90;;;2.21;71.86
67373;BME280;54257;54.496;18.412;2023-02-23T10:27:44;99729.36;;;2.29;71.73
67373;BME280;54257;54.496;18.412;2023-02-23T10:35:28;99728.87;;;2.44;71.12
67373;BME280;54257;54.496;18.412;2023-02-23T10:37:58;99721.27;;;2.47;71.42
67373;BME280;54257;54.496;18.412;2023-02-23T10:40:27;99716.48;;;2.53;71.88
67373;BME280;54257;54.496;18.412;2023-02-23T10:43:00;99714.17;;;2.54;70.78
67373;BME280;54257;54.496;18.412;2023-02-23T10:45:33;99710.54;;;2.51;70.98
67373;BME280;54257;54.496;18.412;2023-02-23T10:48:15;99709.82;;;2.59;70.91
67373;BME280;54257;54.496;18.412;2023-02-23T10:50:44;99706.83;;;2.60;70.54
67373;BME280;54257;54.496;18.412;2023-02-23T10:53:24;99703.49;;;2.64;70.64
67373;BME280;54257;54.496;18.412;2023-02-23T10:56:04;99697.73;;;2.72;70.37
67373;BME280;54257;54.496;18.412;2023-02-23T11:01:10;99683.56;;;2.95;70.44
67373;BME280;54257;54.496;18.412;2023-02-23T11:03:48;99677.59;;;3.09;70.43
67373;BME280;54257;54.496;18.412;2023-02-23T11:06:30;99673.19;;;3.25;70.28
67373;BME280;54257;54.496;18.412;2023-02-23T11:08:58;99666.52;;;3.35;68.87
67373;BME280;54257;54.496;18.412;2023-02-23T11:11:27;99657.23;;;3.40;68.38
67373;BME280;54257;54.496;18.412;2023-02-23T11:13:56;99653.82;;;3.52;69.12
67373;BME280;54257;54.496;18.412;2023-02-23T11:16:37;99646.69;;;3.64;68.53
67373;BME280;54257;54.496;18.412;2023-02-23T11:19:20;99645.29;;;3.76;68.03
67373;BME280;54257;54.496;18.412;2023-02-23T11:21:50;99636.88;;;3.90;68.55
67373;BME280;54257;54.496;18.412;2023-02-23T11:24:25;99637.20;;;3.98;67.29
67373;BME280;54257;54.496;18.412;2023-02-23T11:26:54;99632.08;;;4.06;67.82
67373;BME280;54257;54.496;18.412;2023-02-23T11:29:49;99626.38;;;4.16;68.08
67373;BME280;54257;54.496;18.412;2023-02-23T11:32:20;99623.09;;;4.23;67.77
67373;BME280;54257;54.496;18.412;2023-02-23T11:37:47;99615.21;;;4.30;67.95
67373;BME280;54257;54.496;18.412;2023-02-23T11:42:55;99607.97;;;4.31;66.62
67373;BME280;54257;54.496;18.412;2023-02-23T11:45:25;99608.27;;;4.34;67.83
67373;BME280;54257;54.496;18.412;2023-02-23T11:47:56;99602.80;;;4.38;66.39
67373;BME280;54257;54.496;18.412;2023-02-23T11:50:28;99594.14;;;4.41;66.62
67373;BME280;54257;54.496;18.412;2023-02-23T11:53:03;99591.77;;;4.46;66.39
67373;BME280;54257;54.496;18.412;2023-02-23T11:55:32;99590.30;;;4.48;65.59
67373;BME280;54257;54.496;18.412;2023-02-23T11:58:22;99585.36;;;4.41;65.49
67373;BME280;54257;54.496;18.412;2023-02-23T12:00:55;99582.63;;;4.40;65.62
67373;BME280;54257;54.496;18.412;2023-02-23T12:03:23;99579.92;;;4.36;65.74
67373;BME280;54257;54.496;18.412;2023-02-23T12:05:53;99575.34;;;4.35;66.08
67373;BME280;54257;54.496;18.412;2023-02-23T12:08:40;99578.91;;;4.36;66.06
67373;BME280;54257;54.496;18.412;2023-02-23T12:11:15;99576.48;;;4.39;66.14
67373;BME280;54257;54.496;18.412;2023-02-23T12:14:02;99573.07;;;4.43;66.64
67373;BME280;54257;54.496;18.412;2023-02-23T12:16:39;99567.88;;;4.49;66.76
67373;BME280;54257;54.496;18.412;2023-02-23T12:19:26;99567.60;;;4.56;66.90
67373;BME280;54257;54.496;18.412;2023-02-23T12:22:02;99562.35;;;4.51;65.97
67373;BME280;54257;54.496;18.412;2023-02-23T12:27:13;99558.83;;;4.42;66.58
67373;BME280;54257;54.496;18.412;2023-02-23T12:32:17;99551.02;;;4.22;65.18
67373;BME280;54257;54.496;18.412;2023-02-23T12:37:43;99542.95;;;4.17;66.54
67373;BME280;54257;54.496;18.412;2023-02-23T12:40:27;99541.52;;;4.20;66.85
67373;BME280;54257;54.496;18.412;2023-02-23T12:43:27;99543.05;;;4.21;66.86
67373;BME280;54257;54.496;18.412;2023-02-23T12:46:10;99536.67;;;4.13;66.47
67373;BME280;54257;54.496;18.412;2023-02-23T12:48:55;99528.85;;;4.01;65.98
67373;BME280;54257;54.496;18.412;2023-02-23T12:51:37;99521.48;;;3.99;67.16
67373;BME280;54257;54.496;18.412;2023-02-23T12:54:08;99512.77;;;3.96;67.15
67373;BME280;54257;54.496;18.412;2023-02-23T13:13:12;99469.71;;;3.92;67.78
67373;BME280;54257;54.496;18.412;2023-02-23T13:16:22;99461.77;;;3.91;68.07
67373;BME280;54257;54.496;18.412;2023-02-23T13:19:23;99456.91;;;3.92;68.02
67373;BME280;54257;54.496;18.412;2023-02-23T13:22:05;99449.17;;;3.89;68.16
67373;BME280;54257;54.496;18.412;2023-02-23T13:24:38;99450.85;;;3.93;68.37
67373;BME280;54257;54.496;18.412;2023-02-23T13:27:22;99443.00;;;3.91;68.06
67373;BME280;54257;54.496;18.412;2023-02-23T13:29:55;99440.55;;;3.88;67.92
67373;BME280;54257;54.496;18.412;2023-02-23T13:32:31;99430.13;;;3.85;68.43
67373;BME280;54257;54.496;18.412;2023-02-23T13:35:06;99427.29;;;3.81;68.09
67373;BME280;54257;54.496;18.412;2023-02-23T13:37:39;99422.96;;;3.78;68.04
67373;BME280;54257;54.496;18.412;2023-02-23T13:43:29;99418.12;;;3.80;68.33
67373;BME280;54257;54.496;18.412;2023-02-23T13:54:21;99408.67;;;3.61;69.34
67373;BME280;54257;54.496;18.412;2023-02-23T13:56:53;99401.16;;;3.58;69.69
67373;BME280;54257;54.496;18.412;2023-02-23T13:59:36;99402.55;;;3.54;69.72
67373;BME280;54257;54.496;18.412;2023-02-23T14:02:21;99394.78;;;3.55;70.29
67373;BME280;54257;54.496;18.412;2023-02-23T14:04:56;99393.06;;;3.53;70.71
67373;BME280;54257;54.496;18.412;2023-02-23T14:07:29;99386.39;;;3.56;70.73
67373;BME280;54257;54.496;18.412;2023-02-23T14:10:03;99382.94;;;3.58;70.82
67373;BME280;54257;54.496;18.412;2023-02-23T14:12:40;99381.67;;;3.56;70.76
67373;BME280;54257;54.496;18.412;2023-02-23T14:17:59;99371.89;;;3.66;71.23
67373;BME280;54257;54.496;18.412;2023-02-23T14:26:08;99356.97;;;3.80;71.35
67373;BME280;54257;54.496;18.412;2023-02-23T14:28:41;99351.88;;;3.83;71.30
67373;BME280;54257;54.496;18.412;2023-02-23T14:47:00;99331.65;;;3.90;71.30
67373;BME280;54257;54.496;18.412;2023-02-23T14:49:34;99333.16;;;3.90;71.51
67373;BME280;54257;54.496;18.412;2023-02-23T14:52:25;99331.36;;;3.87;71.19
67373;BME280;54257;54.496;18.412;2023-02-23T14:55:20;99325.08;;;3.80;71.27
67373;BME280;54257;54.496;18.412;2023-02-23T14:57:48;99324.24;;;3.76;71.58
67373;BME280;54257;54.496;18.412;2023-02-23T15:03:00;99320.80;;;3.69;71.79
67373;BME280;54257;54.496;18.412;2023-02-23T15:05:31;99321.70;;;3.65;71.99
67373;BME280;54257;54.496;18.412;2023-02-23T15:08:12;99315.82;;;3.61;72.22
67373;BME280;54257;54.496;18.412;2023-02-23T15:10:46;99316.18;;;3.62;72.44
67373;BME280;54257;54.496;18.412;2023-02-23T15:15:55;99307.76;;;3.62;72.82
67373;BME280;54257;54.496;18.412;2023-02-23T15:18:30;99306.09;;;3.63;72.76
67373;BME280;54257;54.496;18.412;2023-02-23T15:20:58;99301.36;;;3.68;72.83